Time;durP1;ratioP1;P1;durP2;ratioP2;P2;SDS_P1;SDS_P2;PMS_P1;PMS_P2;Temp;Humidity;BMP_temperature;BMP_pressure;BME280_temperature;BME280_humidity;BME280_pressure;Samples;Min_cycle;Max_cycle;Signal;HPM_P1;HPM_P2
2023/04/07 00:01:22;;;;;;;22.65;9.80;;;15.80;99.90;;;;;;5063003;28;20025;-64
2023/04/07 00:03:50;;;;;;;26.75;11.52;;;15.80;99.90;;;;;;5051520;28;20021;-65
2023/04/07 00:06:17;;;;;;;24.65;11.05;;;15.80;99.90;;;;;;5057286;28;20123;-64
2023/04/07 00:08:45;;;;;;;29.55;12.18;;;15.80;99.90;;;;;;5056921;28;20029;-64
2023/04/07 00:11:12;;;;;;;22.00;10.90;;;15.80;99.90;;;;;;5070482;28;20041;-62
2023/04/07 00:13:40;;;;;;;20.95;12.13;;;15.80;99.90;;;;;;5085772;28;20021;-68
2023/04/07 00:16:07;;;;;;;23.05;12.85;;;15.80;99.90;;;;;;5060160;28;20112;-63
2023/04/07 00:18:35;;;;;;;23.85;12.77;;;15.80;99.90;;;;;;5056513;28;20020;-62
2023/04/07 00:21:02;;;;;;;27.23;14.55;;;15.70;99.90;;;;;;5065726;28;20028;-62
2023/04/07 00:23:30;;;;;;;26.88;14.18;;;15.70;99.90;;;;;;5068147;28;20038;-64
2023/04/07 00:25:57;;;;;;;35.00;17.77;;;15.70;99.90;;;;;;5061962;28;20068;-65
2023/04/07 00:28:25;;;;;;;42.58;18.10;;;15.70;99.90;;;;;;5055907;28;20026;-64
2023/04/07 00:30:52;;;;;;;34.75;16.95;;;15.70;99.90;;;;;;5055459;28;20075;-60
2023/04/07 00:33:20;;;;;;;28.92;15.68;;;15.60;99.90;;;;;;5050966;28;20074;-63
2023/04/07 00:35:47;;;;;;;36.70;17.23;;;15.70;99.90;;;;;;5050111;28;20032;-62
2023/04/07 00:38:15;;;;;;;34.50;17.35;;;15.70;99.90;;;;;;5054600;28;20059;-64
2023/04/07 00:40:42;;;;;;;31.90;16.88;;;15.80;99.90;;;;;;5053519;28;20017;-65
2023/04/07 00:43:10;;;;;;;36.05;18.50;;;15.90;99.90;;;;;;5063195;28;20024;-65
2023/04/07 00:45:37;;;;;;;41.45;20.90;;;16.20;99.90;;;;;;5057627;28;20025;-65
2023/04/07 00:48:05;;;;;;;44.83;20.05;;;16.40;99.90;;;;;;5061024;28;20028;-63
2023/04/07 00:50:32;;;;;;;45.42;22.20;;;16.60;99.90;;;;;;5055370;28;20112;-67
2023/04/07 00:53:01;;;;;;;38.15;19.45;;;16.70;99.90;;;;;;5051745;28;20036;-65
2023/04/07 00:55:29;;;;;;;35.38;19.83;;;16.90;99.90;;;;;;5062496;28;20029;-65
2023/04/07 00:57:56;;;;;;;31.00;17.00;;;17.00;99.90;;;;;;5059442;28;20435;-65
2023/04/07 01:00:23;;;;;;;34.80;14.85;;;17.00;99.90;;;;;;5055001;28;20079;-61
2023/04/07 01:03:10;;;;;;;26.80;14.27;;;17.10;99.90;;;;;;5065980;28;20048;-63
2023/04/07 01:05:54;;;;;;;23.33;11.95;;;17.30;99.90;;;;;;5063107;28;20518;-65
2023/04/07 01:08:30;;;;;;;20.67;12.27;;;17.60;99.90;;;;;;5049716;28;20073;-64
2023/04/07 01:11:16;;;;;;;21.58;12.25;;;17.70;99.90;;;;;;5050295;28;20061;-65
2023/04/07 01:13:50;;;;;;;24.02;13.20;;;17.80;99.90;;;;;;5054595;28;20048;-63
2023/04/07 01:16:27;;;;;;;23.40;12.30;;;18.10;99.90;;;;;;5066875;28;20036;-64
2023/04/07 01:19:00;;;;;;;26.50;13.75;;;18.30;99.90;;;;;;5052592;28;20031;-64
2023/04/07 01:21:32;;;;;;;26.98;13.55;;;18.60;99.90;;;;;;5050897;28;20040;-66
2023/04/07 01:24:17;;;;;;;21.15;10.88;;;18.80;99.90;;;;;;5049377;28;20017;-65
2023/04/07 01:26:46;;;;;;;21.40;9.80;;;18.80;99.90;;;;;;5055704;28;20489;-64
2023/04/07 01:29:25;;;;;;;12.45;7.70;;;19.00;99.90;;;;;;5053300;28;20017;-62
2023/04/07 01:31:56;;;;;;;13.93;6.78;;;19.10;99.90;;;;;;5051407;28;20040;-64
2023/04/07 01:34:26;;;;;;;14.90;7.28;;;19.30;99.90;;;;;;5053721;28;20110;-65
2023/04/07 01:36:56;;;;;;;9.43;6.30;;;19.60;99.90;;;;;;5048624;28;20497;-65
2023/04/07 01:39:26;;;;;;;15.00;7.70;;;20.10;99.90;;;;;;5065494;28;20099;-64
2023/04/07 01:41:54;;;;;;;15.20;5.78;;;20.50;99.90;;;;;;5050683;28;20389;-64
2023/04/07 01:44:22;;;;;;;5.88;3.47;;;20.80;99.90;;;;;;5057600;28;20420;-62
2023/04/07 01:46:53;;;;;;;5.70;3.05;;;20.90;99.90;;;;;;5049042;28;20056;-64
2023/04/07 01:49:21;;;;;;;7.57;2.88;;;20.90;99.90;;;;;;5057675;28;20175;-64
2023/04/07 01:51:49;;;;;;;5.68;3.20;;;20.90;99.90;;;;;;5049044;28;20040;-63
2023/04/07 01:54:18;;;;;;;5.10;3.80;;;20.90;99.90;;;;;;5056339;28;20061;-63
2023/04/07 01:56:45;;;;;;;7.70;3.20;;;20.90;99.90;;;;;;5055348;28;20055;-62
2023/04/07 01:59:13;;;;;;;5.95;2.65;;;20.80;99.90;;;;;;5051239;28;20149;-63
2023/04/07 02:01:40;;;;;;;5.63;2.92;;;20.80;99.90;;;;;;5052906;28;20016;-63
2023/04/07 02:04:23;;;;;;;9.63;2.83;;;21.00;99.90;;;;;;5049799;28;20390;-64
2023/04/07 02:07:00;;;;;;;6.00;2.70;;;21.30;99.90;;;;;;5053743;28;20041;-65
2023/04/07 02:09:31;;;;;;;6.85;2.67;;;21.60;99.90;;;;;;5062595;28;20032;-63
2023/04/07 02:12:01;;;;;;;5.00;2.55;;;21.60;99.90;;;;;;5060594;28;20040;-62
2023/04/07 02:14:29;;;;;;;8.07;4.45;;;21.60;99.90;;;;;;5066145;28;20032;-62
2023/04/07 02:16:58;;;;;;;3.13;2.22;;;21.70;99.90;;;;;;5063027;28;20112;-62
2023/04/07 02:19:26;;;;;;;4.35;2.47;;;21.80;99.90;;;;;;5064093;28;20024;-62
2023/04/07 02:21:55;;;;;;;4.55;2.10;;;22.10;99.90;;;;;;5059030;28;20027;-62
2023/04/07 02:24:22;;;;;;;2.95;1.63;;;22.20;99.90;;;;;;5058493;28;20082;-61
2023/04/07 02:26:50;;;;;;;5.93;3.05;;;22.30;99.90;;;;;;5061162;28;20773;-62
2023/04/07 02:29:17;;;;;;;4.13;2.50;;;22.30;99.90;;;;;;5055713;28;20025;-63
2023/04/07 02:31:45;;;;;;;5.43;2.65;;;22.30;99.90;;;;;;5061387;28;20412;-66
2023/04/07 02:34:12;;;;;;;9.20;3.03;;;22.10;99.90;;;;;;5060346;28;20151;-64
2023/04/07 02:36:40;;;;;;;6.93;2.05;;;22.00;99.90;;;;;;5074183;28;20023;-65
2023/04/07 02:39:08;;;;;;;6.22;2.28;;;22.00;99.90;;;;;;5074298;28;20051;-65
2023/04/07 02:41:35;;;;;;;7.90;2.47;;;22.10;99.90;;;;;;5073038;28;20028;-64
2023/04/07 02:44:03;;;;;;;7.05;2.33;;;22.30;99.90;;;;;;5066110;28;20028;-63
2023/04/07 02:46:30;;;;;;;6.60;2.00;;;22.60;99.90;;;;;;5059818;28;20028;-64
2023/04/07 02:48:58;;;;;;;6.80;2.30;;;22.80;99.90;;;;;;5075578;28;20111;-65
2023/04/07 02:51:26;;;;;;;3.85;1.52;;;23.00;99.90;;;;;;5082989;28;20038;-67
2023/04/07 02:53:53;;;;;;;3.92;1.25;;;23.10;99.90;;;;;;5076194;28;20031;-65
2023/04/07 02:56:20;;;;;;;2.80;0.80;;;23.10;99.90;;;;;;5071372;28;20073;-69
2023/04/07 02:58:48;;;;;;;4.03;1.10;;;23.20;99.90;;;;;;5072284;28;20491;-67
2023/04/07 03:01:15;;;;;;;4.47;0.90;;;23.30;99.90;;;;;;5061164;28;20059;-68
2023/04/07 03:03:43;;;;;;;2.25;0.75;;;23.40;99.90;;;;;;5064495;28;20028;-67
2023/04/07 03:06:11;;;;;;;2.65;1.00;;;23.40;99.90;;;;;;5064445;28;20094;-64
2023/04/07 03:08:38;;;;;;;2.28;0.95;;;23.50;99.90;;;;;;5059279;28;20055;-65
2023/04/07 03:11:05;;;;;;;3.47;0.80;;;23.60;99.90;;;;;;5055160;28;20040;-65
2023/04/07 03:13:33;;;;;;;3.22;0.82;;;23.70;99.90;;;;;;5065182;28;20029;-65
2023/04/07 03:16:00;;;;;;;2.60;0.93;;;23.80;99.90;;;;;;5058710;28;20025;-64
2023/04/07 03:18:28;;;;;;;5.35;1.13;;;23.80;99.90;;;;;;5061259;28;20036;-64
2023/04/07 03:20:55;;;;;;;1.98;0.80;;;23.90;99.90;;;;;;5055198;28;20025;-65
2023/04/07 03:23:23;;;;;;;2.70;0.90;;;24.00;99.90;;;;;;5060331;28;20042;-64
2023/04/07 03:25:50;;;;;;;5.38;1.00;;;24.00;99.90;;;;;;5058225;28;20025;-65
2023/04/07 03:28:17;;;;;;;1.95;1.48;;;24.00;99.90;;;;;;5051048;28;20481;-65
2023/04/07 03:30:45;;;;;;;2.10;1.60;;;24.00;99.90;;;;;;5058382;28;20040;-65
2023/04/07 03:33:12;;;;;;;4.32;1.40;;;24.10;99.90;;;;;;5053375;28;20397;-64
2023/04/07 03:35:40;;;;;;;4.00;1.13;;;24.20;99.90;;;;;;5056537;28;20016;-64
2023/04/07 03:38:07;;;;;;;5.88;1.35;;;24.20;99.90;;;;;;5052426;28;20057;-64
2023/04/07 03:40:36;;;;;;;3.10;0.90;;;24.30;99.90;;;;;;5054127;28;20032;-65
2023/04/07 03:43:03;;;;;;;4.65;0.80;;;24.30;99.90;;;;;;5057392;28;20013;-65
2023/04/07 03:45:32;;;;;;;1.38;0.90;;;24.40;99.90;;;;;;5059665;28;20051;-70
2023/04/07 03:48:01;;;;;;;3.17;0.77;;;24.50;99.90;;;;;;5057466;28;20120;-69
2023/04/07 03:50:28;;;;;;;1.73;1.00;;;24.60;99.90;;;;;;5062019;28;20117;-72
2023/04/07 03:52:55;;;;;;;2.80;0.82;;;24.70;99.90;;;;;;5063453;28;20040;-69
2023/04/07 03:55:23;;;;;;;2.45;0.70;;;24.80;99.90;;;;;;5067418;28;20025;-70
2023/04/07 03:57:50;;;;;;;2.20;0.85;;;24.80;99.90;;;;;;5062830;28;20033;-71
2023/04/07 04:00:18;;;;;;;1.08;0.45;;;24.80;99.90;;;;;;5055814;28;20096;-71
2023/04/07 04:02:45;;;;;;;2.60;1.00;;;24.70;99.90;;;;;;5055439;28;20021;-70
2023/04/07 04:05:13;;;;;;;3.70;1.02;;;24.70;99.90;;;;;;5053869;28;20057;-70
2023/04/07 04:07:40;;;;;;;4.80;0.75;;;24.60;99.90;;;;;;5051801;28;20033;-72
2023/04/07 04:10:08;;;;;;;1.02;0.52;;;24.60;99.90;;;;;;5056327;28;20013;-70
2023/04/07 04:12:35;;;;;;;1.77;0.77;;;24.70;99.90;;;;;;5053669;28;20517;-70
2023/04/07 04:15:03;;;;;;;2.22;0.70;;;24.80;99.90;;;;;;5054106;28;20040;-67
2023/04/07 04:17:30;;;;;;;3.22;1.58;;;24.80;99.90;;;;;;5058926;28;20029;-61
2023/04/07 04:19:58;;;;;;;3.13;1.60;;;24.90;99.90;;;;;;5055432;28;20025;-62
2023/04/07 04:22:25;;;;;;;4.35;0.73;;;24.90;99.90;;;;;;5054326;28;20078;-67
2023/04/07 04:24:52;;;;;;;1.30;0.70;;;25.00;99.90;;;;;;5053408;28;20052;-65
2023/04/07 04:27:20;;;;;;;2.67;0.60;;;25.00;99.90;;;;;;5051014;28;20025;-69
2023/04/07 04:29:47;;;;;;;2.33;0.70;;;24.90;99.90;;;;;;5054749;28;20024;-66
2023/04/07 04:32:16;;;;;;;2.38;0.80;;;24.70;99.90;;;;;;5063618;28;20032;-66
2023/04/07 04:34:44;;;;;;;2.67;0.77;;;24.60;99.90;;;;;;5060545;28;20028;-66
2023/04/07 04:37:11;;;;;;;2.90;0.77;;;24.70;99.90;;;;;;5052734;28;20481;-64
2023/04/07 04:39:39;;;;;;;2.78;1.00;;;24.70;99.90;;;;;;5050608;28;20150;-64
2023/04/07 04:42:06;;;;;;;4.28;1.10;;;24.70;99.90;;;;;;5050140;28;20024;-67
2023/04/07 04:44:34;;;;;;;3.53;1.00;;;24.70;99.90;;;;;;5058391;28;20032;-66
2023/04/07 04:47:01;;;;;;;1.98;0.85;;;25.00;99.90;;;;;;5059986;28;20067;-66
2023/04/07 04:49:29;;;;;;;2.30;1.10;;;25.10;99.90;;;;;;5064863;28;20370;-65
2023/04/07 04:51:56;;;;;;;2.55;0.80;;;25.20;99.90;;;;;;5061829;28;20127;-67
2023/04/07 04:54:24;;;;;;;2.50;1.00;;;25.20;99.90;;;;;;5059202;28;20016;-67
2023/04/07 04:56:52;;;;;;;4.10;0.90;;;25.30;99.90;;;;;;5061754;28;20025;-66
2023/04/07 04:59:19;;;;;;;3.42;0.70;;;25.30;99.90;;;;;;5055095;28;20025;-66
2023/04/07 05:01:46;;;;;;;1.52;0.88;;;25.20;99.90;;;;;;5054996;28;20562;-67
2023/04/07 05:04:15;;;;;;;3.33;0.88;;;25.10;99.90;;;;;;5052521;28;20029;-65
2023/04/07 05:06:43;;;;;;;3.30;0.90;;;25.00;99.90;;;;;;5082159;28;20040;-65
2023/04/07 05:09:11;;;;;;;4.82;1.10;;;24.90;99.90;;;;;;5069802;28;20021;-65
2023/04/07 05:11:40;;;;;;;1.65;0.60;;;24.80;99.90;;;;;;5072376;28;20563;-65
2023/04/07 05:14:07;;;;;;;2.30;0.57;;;24.70;99.90;;;;;;5065179;28;20024;-64
2023/04/07 05:16:35;;;;;;;2.25;0.52;;;24.60;99.90;;;;;;5064278;28;20058;-64
2023/04/07 05:19:03;;;;;;;2.40;0.60;;;24.60;99.90;;;;;;5050799;28;20489;-66
2023/04/07 05:21:30;;;;;;;1.45;0.32;;;24.50;99.90;;;;;;5063623;28;20030;-65
2023/04/07 05:23:58;;;;;;;2.13;1.15;;;24.50;99.90;;;;;;5049247;28;20416;-66
2023/04/07 05:26:25;;;;;;;1.55;0.60;;;24.60;99.90;;;;;;5049882;28;20033;-65
2023/04/07 05:28:52;;;;;;;2.47;0.80;;;24.50;99.90;;;;;;5060306;28;20135;-62
2023/04/07 05:31:20;;;;;;;1.52;0.70;;;24.50;99.90;;;;;;5058915;28;20048;-65
2023/04/07 05:33:47;;;;;;;1.90;0.60;;;24.50;99.90;;;;;;5054346;28;20135;-63
2023/04/07 05:36:15;;;;;;;4.97;0.95;;;24.60;99.90;;;;;;5053949;28;20032;-68
2023/04/07 05:38:42;;;;;;;2.45;0.60;;;24.60;99.90;;;;;;5058914;28;20489;-65
2023/04/07 05:41:11;;;;;;;2.42;0.70;;;24.50;99.90;;;;;;5068907;28;20035;-64
2023/04/07 05:43:38;;;;;;;5.03;1.38;;;24.40;99.90;;;;;;5058236;28;20036;-63
2023/04/07 05:46:05;;;;;;;7.80;2.40;;;24.30;99.90;;;;;;5052195;28;20025;-65
2023/04/07 05:48:33;;;;;;;7.47;1.50;;;24.20;99.90;;;;;;5054174;28;20032;-66
2023/04/07 05:51:00;;;;;;;2.25;0.75;;;24.00;99.90;;;;;;5063263;28;20159;-66
2023/04/07 05:53:28;;;;;;;2.63;0.85;;;23.90;99.90;;;;;;5053699;28;20029;-66
2023/04/07 05:55:55;;;;;;;2.80;1.33;;;23.70;99.90;;;;;;5058901;28;20375;-65
2023/04/07 05:58:22;;;;;;;1.15;0.50;;;23.60;99.90;;;;;;5063726;28;20066;-66
2023/04/07 06:00:50;;;;;;;0.93;0.40;;;23.50;99.90;;;;;;5058376;28;20033;-66
2023/04/07 06:03:18;;;;;;;0.50;0.40;;;23.40;99.90;;;;;;5051915;28;20055;-66
2023/04/07 06:05:48;;;;;;;1.25;0.40;;;23.30;99.90;;;;;;5050589;28;20506;-68
2023/04/07 06:08:15;;;;;;;2.53;0.50;;;23.20;99.90;;;;;;5049331;28;20035;-66
2023/04/07 06:10:43;;;;;;;0.95;0.60;;;23.10;99.90;;;;;;5062122;28;20119;-67
2023/04/07 06:13:10;;;;;;;2.55;0.70;;;23.00;99.90;;;;;;5057102;28;20024;-67
2023/04/07 06:15:38;;;;;;;1.30;0.47;;;23.00;99.90;;;;;;5061051;28;20100;-66
2023/04/07 06:18:05;;;;;;;0.85;0.57;;;22.90;99.90;;;;;;5075755;28;20029;-67
2023/04/07 06:20:33;;;;;;;1.20;0.60;;;22.90;99.90;;;;;;5075200;28;20055;-69
2023/04/07 06:23:00;;;;;;;1.17;0.60;;;22.80;99.90;;;;;;5058536;28;20036;-67
2023/04/07 06:25:28;;;;;;;1.15;0.50;;;22.80;99.90;;;;;;5070573;28;20119;-68
2023/04/07 06:27:56;;;;;;;1.33;0.70;;;22.70;99.90;;;;;;5080685;28;20045;-67
2023/04/07 06:30:23;;;;;;;2.03;0.70;;;22.70;99.90;;;;;;5081611;28;20027;-64
2023/04/07 06:32:50;;;;;;;1.90;0.75;;;22.60;99.90;;;;;;5081781;28;20028;-65
2023/04/07 06:35:18;;;;;;;2.92;0.88;;;22.60;99.90;;;;;;5079828;28;20465;-65
2023/04/07 06:37:45;;;;;;;2.33;0.80;;;22.50;99.90;;;;;;5061643;28;20054;-65
2023/04/07 06:40:13;;;;;;;1.92;0.52;;;22.50;99.90;;;;;;5061653;28;20511;-65
2023/04/07 06:42:40;;;;;;;3.70;0.68;;;22.40;99.90;;;;;;5059472;28;20040;-65
2023/04/07 06:45:09;;;;;;;1.45;0.63;;;22.30;99.90;;;;;;5061858;28;20029;-65
2023/04/07 06:47:37;;;;;;;3.92;1.15;;;22.30;99.90;;;;;;5053453;28;20457;-67
2023/04/07 06:50:05;;;;;;;6.07;1.17;;;22.20;99.90;;;;;;5059026;28;20016;-68
2023/04/07 06:52:32;;;;;;;5.40;1.27;;;21.90;99.90;;;;;;5063094;28;20126;-68
2023/04/07 06:55:00;;;;;;;2.75;0.82;;;21.80;99.90;;;;;;5062682;28;20091;-68
2023/04/07 06:57:27;;;;;;;2.55;1.02;;;21.60;99.90;;;;;;5055989;28;20044;-68
2023/04/07 06:59:55;;;;;;;1.40;0.93;;;21.40;99.90;;;;;;5051853;28;20484;-68
2023/04/07 07:02:22;;;;;;;3.05;1.10;;;21.20;99.90;;;;;;5051169;28;20036;-69
2023/04/07 07:04:50;;;;;;;2.42;0.82;;;21.20;99.90;;;;;;5053370;28;20021;-68
2023/04/07 07:07:18;;;;;;;2.85;1.30;;;21.10;99.90;;;;;;5059285;28;20032;-68
2023/04/07 07:09:45;;;;;;;3.25;1.52;;;21.00;99.90;;;;;;5071660;28;20388;-70
2023/04/07 07:12:14;;;;;;;5.20;1.20;;;20.90;99.90;;;;;;5064120;28;20029;-70
2023/04/07 07:14:41;;;;;;;4.32;1.70;;;20.80;99.90;;;;;;5059300;28;20086;-72
2023/04/07 07:17:09;;;;;;;4.57;1.63;;;20.60;99.90;;;;;;5063296;28;20473;-70
2023/04/07 07:19:36;;;;;;;9.15;1.88;;;20.40;99.90;;;;;;5069834;28;20071;-69
2023/04/07 07:22:04;;;;;;;2.35;1.30;;;20.30;99.90;;;;;;5066148;28;20028;-68
2023/04/07 07:24:32;;;;;;;3.30;1.73;;;20.20;99.90;;;;;;5053822;28;20083;-69
2023/04/07 07:27:01;;;;;;;2.78;1.33;;;20.00;99.90;;;;;;5063032;28;20031;-71
2023/04/07 07:29:28;;;;;;;3.17;1.33;;;19.70;99.90;;;;;;5078579;28;20025;-70
2023/04/07 07:31:59;;;;;;;2.67;1.10;;;19.50;99.90;;;;;;5058615;28;20554;-69
2023/04/07 07:34:26;;;;;;;4.97;2.33;;;19.30;99.90;;;;;;5060885;28;20029;-70
2023/04/07 07:36:54;;;;;;;4.53;2.03;;;19.20;99.90;;;;;;5067273;28;20024;-69
2023/04/07 07:39:21;;;;;;;4.53;2.42;;;19.10;99.90;;;;;;5064456;28;20021;-69
2023/04/07 07:41:49;;;;;;;6.40;2.10;;;18.90;99.90;;;;;;5058002;28;20035;-69
2023/04/07 07:44:19;;;;;;;5.40;2.60;;;18.80;99.90;;;;;;5065235;28;20603;-69
2023/04/07 07:46:46;;;;;;;4.18;2.60;;;18.60;99.90;;;;;;5058472;28;20174;-69
2023/04/07 07:49:14;;;;;;;5.50;2.45;;;18.50;99.90;;;;;;5060108;28;20021;-69
2023/04/07 07:51:41;;;;;;;5.70;2.65;;;18.50;99.90;;;;;;5059694;28;20040;-69
2023/04/07 07:54:09;;;;;;;4.63;2.00;;;18.40;99.90;;;;;;5065292;28;20044;-68
2023/04/07 07:56:36;;;;;;;6.63;1.98;;;18.40;99.90;;;;;;5063573;28;20036;-68
2023/04/07 07:59:07;;;;;;;4.47;1.80;;;18.40;99.90;;;;;;5060708;28;20375;-69
2023/04/07 08:01:34;;;;;;;4.93;2.03;;;18.40;99.90;;;;;;5064495;28;20105;-69
2023/04/07 08:04:02;;;;;;;6.22;1.75;;;18.40;99.90;;;;;;5049570;28;20017;-68
2023/04/07 08:06:30;;;;;;;7.72;3.60;;;18.40;99.90;;;;;;5050272;28;20094;-69
2023/04/07 08:08:57;;;;;;;5.43;3.30;;;18.40;99.90;;;;;;5056374;28;20134;-69
2023/04/07 08:11:25;;;;;;;9.07;3.20;;;18.50;99.90;;;;;;5054361;28;20497;-69
2023/04/07 08:13:53;;;;;;;7.68;3.35;;;18.50;99.90;;;;;;5065793;28;20572;-69
2023/04/07 08:16:21;;;;;;;6.28;2.78;;;18.50;99.90;;;;;;5088978;28;20031;-69
2023/04/07 08:18:48;;;;;;;5.20;2.80;;;18.40;99.90;;;;;;5081729;28;20031;-67
2023/04/07 08:21:16;;;;;;;6.97;2.78;;;18.40;99.90;;;;;;5054836;28;20029;-68
2023/04/07 08:23:43;;;;;;;6.82;2.55;;;18.40;99.90;;;;;;5052244;28;20035;-69
2023/04/07 08:26:11;;;;;;;5.53;2.38;;;18.40;99.90;;;;;;5056403;28;20039;-69
2023/04/07 08:28:38;;;;;;;5.88;2.65;;;18.40;99.90;;;;;;5053379;28;20048;-68
2023/04/07 08:31:06;;;;;;;6.97;3.17;;;18.40;99.90;;;;;;5052200;28;20079;-69
2023/04/07 08:33:34;;;;;;;4.38;2.97;;;18.40;99.90;;;;;;5056510;28;20673;-69
2023/04/07 08:36:01;;;;;;;9.27;3.22;;;18.40;99.90;;;;;;5053614;28;20027;-69
2023/04/07 08:38:30;;;;;;;8.25;2.92;;;18.50;99.90;;;;;;5058192;28;20700;-69
2023/04/07 08:41:07;;;;;;;9.43;3.33;;;18.60;99.90;;;;;;5061813;28;20056;-69
2023/04/07 08:43:37;;;;;;;6.80;3.17;;;18.60;99.90;;;;;;5050270;28;20056;-69
2023/04/07 08:46:06;;;;;;;5.70;2.72;;;18.60;99.90;;;;;;5053453;28;20032;-67
2023/04/07 08:48:34;;;;;;;6.28;2.40;;;18.60;99.90;;;;;;5060335;28;20389;-67
2023/04/07 08:51:09;;;;;;;5.40;2.00;;;18.60;99.90;;;;;;5055692;28;20721;-67
2023/04/07 08:53:51;;;;;;;;;;;18.60;99.90;;;;;;5051830;28;20111;-67
2023/04/07 08:56:20;;;;;;;4.95;2.00;;;18.50;99.90;;;;;;5049051;28;19916;-68
2023/04/07 08:58:48;;;;;;;5.13;2.17;;;18.50;99.90;;;;;;5056828;28;20082;-67
2023/04/07 09:01:16;;;;;;;3.97;2.35;;;18.50;99.90;;;;;;5058360;28;20056;-67
2023/04/07 09:03:46;;;;;;;3.78;2.10;;;18.40;99.90;;;;;;5055479;28;20498;-67
2023/04/07 09:06:13;;;;;;;7.78;2.28;;;18.40;99.90;;;;;;5058620;28;20414;-68
2023/04/07 09:08:41;;;;;;;4.38;2.20;;;18.40;99.90;;;;;;5047576;28;20098;-68
2023/04/07 09:11:08;;;;;;;3.42;1.95;;;18.30;99.90;;;;;;5054182;28;20051;-69
2023/04/07 09:13:36;;;;;;;4.95;2.15;;;18.40;99.90;;;;;;5065916;28;20024;-67
2023/04/07 09:16:03;;;;;;;5.93;2.33;;;18.40;99.90;;;;;;5055749;28;20444;-68
2023/04/07 09:18:31;;;;;;;4.03;1.90;;;18.40;99.90;;;;;;5051848;28;20025;-68
2023/04/07 09:21:00;;;;;;;5.65;3.13;;;18.40;99.90;;;;;;5053412;28;20040;-67
2023/04/07 09:23:32;;;;;;;5.47;2.42;;;18.30;99.90;;;;;;5059047;28;20102;-67
2023/04/07 09:26:18;;;;;;;10.27;2.33;;;18.30;99.90;;;;;;5054237;28;20100;-67
2023/04/07 09:28:48;;;;;;;3.65;1.92;;;18.40;99.90;;;;;;5049825;28;20024;-68
2023/04/07 09:31:15;;;;;;;6.35;2.25;;;18.30;99.90;;;;;;5055695;28;20389;-67
2023/04/07 09:33:43;;;;;;;3.70;1.65;;;18.30;99.90;;;;;;5061725;28;20139;-68
2023/04/07 09:36:11;;;;;;;6.30;1.63;;;18.40;99.90;;;;;;5049679;28;20056;-67
2023/04/07 09:38:40;;;;;;;1.95;1.05;;;18.30;99.90;;;;;;5045459;28;20028;-67
2023/04/07 09:41:15;;;;;;;1.48;1.02;;;18.30;99.90;;;;;;5065646;28;20085;-67
2023/04/07 09:43:45;;;;;;;3.35;1.55;;;18.40;99.90;;;;;;5058844;28;20078;-67
2023/04/07 09:46:17;;;;;;;4.38;1.30;;;18.40;99.90;;;;;;5057425;28;20033;-67
2023/04/07 09:48:47;;;;;;;5.50;1.73;;;18.30;99.90;;;;;;5045620;28;20029;-67
2023/04/07 09:51:18;;;;;;;4.38;1.20;;;18.30;99.90;;;;;;5050450;28;20032;-69
2023/04/07 09:53:50;;;;;;;1.75;0.98;;;18.30;99.90;;;;;;5047270;28;20033;-66
2023/04/07 09:56:21;;;;;;;2.85;1.38;;;18.30;99.90;;;;;;5046968;28;20032;-67
2023/04/07 09:58:52;;;;;;;1.23;1.00;;;18.40;99.90;;;;;;5055029;28;20501;-67
2023/04/07 10:01:22;;;;;;;2.53;1.00;;;18.40;99.90;;;;;;5063291;28;20374;-66
2023/04/07 10:03:49;;;;;;;3.15;1.00;;;18.40;99.90;;;;;;5057417;28;20039;-65
2023/04/07 10:06:17;;;;;;;3.13;1.50;;;18.60;99.90;;;;;;5048755;28;20147;-66
2023/04/07 10:08:44;;;;;;;11.15;2.42;;;18.80;99.90;;;;;;5053857;28;20687;-66
2023/04/07 10:11:12;;;;;;;4.43;0.70;;;18.90;99.90;;;;;;5049222;28;20443;-68
2023/04/07 10:13:40;;;;;;;5.90;0.70;;;19.00;99.90;;;;;;5048827;28;20489;-67
2023/04/07 10:16:09;;;;;;;3.65;0.50;;;18.90;99.90;;;;;;5048231;28;20355;-67
2023/04/07 10:18:38;;;;;;;2.67;0.43;;;18.70;99.90;;;;;;5052607;28;20480;-67
2023/04/07 10:21:08;;;;;;;0.35;0.22;;;18.50;99.90;;;;;;5056828;28;20028;-67
2023/04/07 10:23:44;;;;;;;3.67;0.50;;;18.20;99.90;;;;;;5058841;28;20035;-67
2023/04/07 10:26:14;;;;;;;5.95;0.60;;;18.10;99.90;;;;;;5057973;28;20059;-67
2023/04/07 10:28:45;;;;;;;0.63;0.40;;;17.90;99.90;;;;;;5051574;28;20408;-68
2023/04/07 10:31:14;;;;;;;2.40;0.60;;;17.70;99.90;;;;;;5054714;28;20498;-68
2023/04/07 10:33:46;;;;;;;1.13;0.50;;;17.60;99.90;;;;;;5049098;28;20079;-67
2023/04/07 10:36:13;;;;;;;1.83;0.50;;;17.60;99.90;;;;;;5052074;28;20103;-68
2023/04/07 10:38:41;;;;;;;1.92;0.50;;;17.40;99.90;;;;;;5053825;28;20082;-68
2023/04/07 10:41:35;;;;;;;1.73;0.75;;;17.30;99.90;;;;;;5053594;28;20087;-69
2023/04/07 10:44:03;;;;;;;2.20;0.70;;;17.10;99.90;;;;;;5051435;28;20374;-69
2023/04/07 10:46:47;;;;;;;3.03;1.00;;;16.90;99.90;;;;;;5050429;28;20493;-69
2023/04/07 10:49:15;;;;;;;2.40;0.80;;;16.70;99.90;;;;;;5051167;28;20871;-68
2023/04/07 10:51:43;;;;;;;0.70;0.50;;;16.50;99.90;;;;;;5046433;28;20037;-69
2023/04/07 10:54:22;;;;;;;5.70;1.00;;;16.50;99.90;;;;;;5049519;28;20020;-67
2023/04/07 10:57:14;;;;;;;1.45;0.47;;;16.30;99.90;;;;;;5070115;28;20596;-68
2023/04/07 11:00:03;;;;;;;2.67;0.85;;;16.30;99.90;;;;;;5054183;28;20540;-68
2023/04/07 11:02:31;;;;;;;3.70;0.82;;;16.10;99.90;;;;;;5043312;28;20119;-68
2023/04/07 11:04:59;;;;;;;3.13;0.88;;;16.00;99.90;;;;;;5049653;28;20033;-63
2023/04/07 11:07:49;;;;;;;2.88;1.00;;;16.00;99.90;;;;;;5050055;28;20404;-62
2023/04/07 11:10:18;;;;;;;1.50;0.80;;;15.90;99.90;;;;;;5063723;28;20037;-62
2023/04/07 11:12:57;;;;;;;3.22;1.10;;;15.80;99.90;;;;;;5062571;28;20036;-62
2023/04/07 11:15:25;;;;;;;2.10;1.00;;;15.80;99.90;;;;;;5054665;28;20757;-62
2023/04/07 11:18:10;;;;;;;6.50;1.35;;;15.70;99.90;;;;;;5056142;28;20481;-62
2023/04/07 11:21:00;;;;;;;3.60;1.30;;;15.70;99.90;;;;;;5055807;28;20190;-62
2023/04/07 11:23:28;;;;;;;4.07;1.35;;;15.70;99.90;;;;;;5054013;28;20025;-62
2023/04/07 11:26:02;;;;;;;4.47;1.15;;;15.60;99.90;;;;;;5056831;28;20108;-62
2023/04/07 11:28:31;;;;;;;5.15;1.38;;;15.70;99.90;;;;;;5051633;28;20027;-62
2023/04/07 11:30:58;;;;;;;3.90;1.58;;;15.70;99.90;;;;;;5052580;28;20071;-62
2023/04/07 11:33:37;;;;;;;3.53;1.35;;;15.80;99.90;;;;;;5061586;28;20668;-62
2023/04/07 11:36:06;;;;;;;2.75;1.38;;;15.80;99.90;;;;;;5064250;28;20032;-63
2023/04/07 11:38:39;;;;;;;2.70;1.50;;;15.80;99.90;;;;;;5057977;28;20032;-63
2023/04/07 11:41:14;;;;;;;3.35;1.27;;;15.80;99.90;;;;;;5050125;28;20385;-62
2023/04/07 11:43:42;;;;;;;4.05;1.10;;;15.80;99.90;;;;;;5053819;28;20024;-63
2023/04/07 11:46:15;;;;;;;2.33;1.10;;;15.70;99.90;;;;;;5061036;28;20404;-62
2023/04/07 11:48:46;;;;;;;6.38;1.30;;;15.60;99.90;;;;;;5055111;28;20111;-62
2023/04/07 11:51:31;;;;;;;4.20;1.05;;;15.50;99.90;;;;;;5065046;28;20036;-63
2023/04/07 11:53:59;;;;;;;2.25;0.95;;;15.40;99.90;;;;;;5059881;28;20032;-63
2023/04/07 11:56:29;;;;;;;4.30;1.23;;;15.30;99.90;;;;;;5051168;28;20458;-62
2023/04/07 11:58:57;;;;;;;2.67;1.10;;;15.30;99.90;;;;;;5050132;28;20580;-62
2023/04/07 12:01:38;;;;;;;5.07;1.23;;;15.20;99.90;;;;;;5048891;28;20029;-62
2023/04/07 12:04:06;;;;;;;3.03;1.00;;;15.00;99.90;;;;;;5048666;28;20025;-62
2023/04/07 12:06:41;;;;;;;2.78;1.50;;;14.90;99.90;;;;;;5065450;28;20393;-62
2023/04/07 12:09:34;;;;;;;3.28;1.20;;;14.80;99.90;;;;;;5060954;28;20074;-63
2023/04/07 12:12:07;;;;;;;2.60;1.20;;;14.70;99.90;;;;;;5052238;28;20040;-62
2023/04/07 12:14:35;;;;;;;3.20;1.52;;;14.60;99.90;;;;;;5052466;28;20591;-60
2023/04/07 12:17:03;;;;;;;5.13;1.80;;;14.60;99.90;;;;;;5054283;28;20040;-59
2023/04/07 12:19:34;;;;;;;3.97;1.45;;;14.60;99.90;;;;;;5050607;28;20104;-60
2023/04/07 12:22:01;;;;;;;4.75;1.95;;;14.50;99.90;;;;;;5049276;28;20029;-60
2023/04/07 12:24:31;;;;;;;2.85;1.35;;;14.50;99.90;;;;;;5055627;28;20112;-60
2023/04/07 12:26:58;;;;;;;5.22;1.40;;;14.50;99.90;;;;;;5058325;28;20032;-60
2023/04/07 12:29:26;;;;;;;7.22;1.85;;;14.50;99.90;;;;;;5052837;28;20568;-60
2023/04/07 12:31:53;;;;;;;3.20;1.42;;;14.60;99.90;;;;;;5060946;28;20089;-60
2023/04/07 12:34:21;;;;;;;4.07;1.40;;;14.50;99.90;;;;;;5065707;28;20060;-60
2023/04/07 12:36:48;;;;;;;5.45;1.58;;;14.60;99.90;;;;;;5061248;28;20040;-60
2023/04/07 12:39:16;;;;;;;2.97;1.63;;;14.60;99.90;;;;;;5077742;28;20096;-60
2023/04/07 12:41:44;;;;;;;5.05;1.50;;;14.60;99.90;;;;;;5056941;28;20094;-60
2023/04/07 12:44:12;;;;;;;5.55;1.60;;;14.50;99.90;;;;;;5053482;28;20017;-60
2023/04/07 12:46:40;;;;;;;3.58;1.50;;;14.40;99.90;;;;;;5061910;28;20136;-59
2023/04/07 12:49:07;;;;;;;2.92;1.35;;;14.30;99.90;;;;;;5055177;28;20024;-60
2023/04/07 12:51:35;;;;;;;7.28;2.10;;;14.20;99.90;;;;;;5056534;28;20630;-60
2023/04/07 12:54:03;;;;;;;3.58;1.60;;;14.10;99.90;;;;;;5057499;28;20100;-61
2023/04/07 12:56:31;;;;;;;2.67;1.30;;;14.00;99.90;;;;;;5062649;28;20047;-60